Time;durP1;ratioP1;P1;durP2;ratioP2;P2;SDS_P1;SDS_P2;PMS_P1;PMS_P2;Temp;Humidity;BMP_temperature;BMP_pressure;BME280_temperature;BME280_humidity;BME280_pressure;Samples;Min_cycle;Max_cycle;Signal;HPM_P1;HPM_P2
2022/08/04 00:02:02;;;;;;;15.70;2.53;;;;;;;;;;5052174;28;20036;-67
2022/08/04 00:04:28;;;;;;;13.05;2.22;;;;;;;;;;5052380;28;20371;-67
2022/08/04 00:07:13;;;;;;;17.42;2.78;;;;;;;;;;5051456;28;20523;-67
2022/08/04 00:09:54;;;;;;;12.07;1.75;;;;;;;;;;5053026;28;20369;-68
2022/08/04 00:12:20;;;;;;;8.75;1.70;;;;;;;;;;5051398;28;20029;-67
2022/08/04 00:14:48;;;;;;;12.35;2.38;;;;;;;;;;5047018;28;20144;-67
2022/08/04 00:17:14;;;;;;;14.73;2.15;;;;;;;;;;5040860;28;20017;-67
2022/08/04 00:19:47;;;;;;;15.57;1.90;;;;;;;;;;5055946;28;20020;-67
2022/08/04 00:22:13;;;;;;;3.60;1.35;;;;;;;;;;5052629;28;20549;-67
2022/08/04 00:24:39;;;;;;;13.57;2.42;;;;;;;;;;5065792;28;20035;-67
2022/08/04 00:27:06;;;;;;;12.43;2.20;;;;;;;;;;5066735;28;20507;-67
2022/08/04 00:29:32;;;;;;;15.25;1.90;;;;;;;;;;5055860;28;20050;-67
2022/08/04 00:31:58;;;;;;;11.43;2.22;;;;;;;;;;5051494;28;20081;-67
2022/08/04 00:34:25;;;;;;;9.70;2.53;;;;;;;;;;5054695;28;20475;-67
2022/08/04 00:36:51;;;;;;;17.25;2.78;;;;;;;;;;5052276;28;20029;-67
2022/08/04 00:39:17;;;;;;;9.82;1.85;;;;;;;;;;5051138;28;20029;-67
2022/08/04 00:41:46;;;;;;;11.73;1.90;;;;;;;;;;5052058;28;20078;-67
2022/08/04 00:44:33;;;;;;;6.28;1.52;;;;;;;;;;5052166;28;20032;-67
2022/08/04 00:47:00;;;;;;;10.80;1.98;;;;;;;;;;5050459;28;20033;-68
2022/08/04 00:49:26;;;;;;;11.18;2.20;;;;;;;;;;5047191;28;20499;-67
2022/08/04 00:51:56;;;;;;;14.43;1.63;;;;;;;;;;5051953;28;20528;-67
2022/08/04 00:54:22;;;;;;;15.38;2.15;;;;;;;;;;5066453;28;20024;-67
2022/08/04 00:57:02;;;;;;;9.35;1.90;;;;;;;;;;5071581;28;20047;-67
2022/08/04 00:59:44;;;;;;;13.65;2.10;;;;;;;;;;5071761;28;20025;-67
2022/08/04 01:02:13;;;;;;;13.85;1.80;;;;;;;;;;5053744;28;20028;-67
2022/08/04 01:04:49;;;;;;;9.48;3.38;;;;;;;;;;5051579;28;20060;-67
2022/08/04 01:07:25;;;;;;;10.63;1.80;;;;;;;;;;5051613;28;20032;-67
2022/08/04 01:09:58;;;;;;;7.32;1.50;;;;;;;;;;5051553;28;20519;-67
2022/08/04 01:12:43;;;;;;;8.70;1.83;;;;;;;;;;5033999;28;20025;-67
2022/08/04 01:15:22;;;;;;;7.93;1.60;;;;;;;;;;5051519;28;20403;-67
2022/08/04 01:18:05;;;;;;;11.73;2.42;;;;;;;;;;5049390;28;20538;-67
2022/08/04 01:20:51;;;;;;;11.07;2.13;;;;;;;;;;5051631;28;20079;-67
2022/08/04 01:23:20;;;;;;;8.52;1.58;;;;;;;;;;5051359;28;20427;-67
2022/08/04 01:25:50;;;;;;;15.60;2.78;;;;;;;;;;5051041;28;20028;-67
2022/08/04 01:28:19;;;;;;;19.92;2.00;;;;;;;;;;5051156;28;20071;-67
2022/08/04 01:30:45;;;;;;;10.48;1.77;;;;;;;;;;5050122;28;20025;-67
2022/08/04 01:33:14;;;;;;;8.07;1.60;;;;;;;;;;5049897;28;20461;-67
2022/08/04 01:35:43;;;;;;;15.95;2.30;;;;;;;;;;5050879;28;20025;-67
2022/08/04 01:38:15;;;;;;;20.60;2.90;;;;;;;;;;5051128;28;20021;-67
2022/08/04 01:40:41;;;;;;;9.47;2.10;;;;;;;;;;5050958;28;20490;-67
2022/08/04 01:43:07;;;;;;;16.25;2.38;;;;;;;;;;5049868;28;20029;-67
2022/08/04 01:45:33;;;;;;;8.73;2.28;;;;;;;;;;5049449;28;20128;-67
2022/08/04 01:47:59;;;;;;;10.20;2.08;;;;;;;;;;5049812;28;20092;-67
2022/08/04 01:50:27;;;;;;;14.10;1.98;;;;;;;;;;5051005;28;20032;-67
2022/08/04 01:52:53;;;;;;;15.80;2.00;;;;;;;;;;5050869;28;20108;-67
2022/08/04 01:55:20;;;;;;;13.68;2.20;;;;;;;;;;5050564;28;20391;-67
2022/08/04 01:57:50;;;;;;;9.63;2.03;;;;;;;;;;5049234;28;20031;-67
2022/08/04 02:00:20;;;;;;;6.55;1.60;;;;;;;;;;5050892;28;20035;-67
2022/08/04 02:02:46;;;;;;;7.45;1.75;;;;;;;;;;5049142;28;20104;-67
2022/08/04 02:05:14;;;;;;;7.28;1.80;;;;;;;;;;5050637;28;20061;-67
2022/08/04 02:08:03;;;;;;;7.97;2.35;;;;;;;;;;5046544;28;20056;-68
2022/08/04 02:10:30;;;;;;;16.05;2.60;;;;;;;;;;5031041;28;20049;-67
2022/08/04 02:13:05;;;;;;;6.95;1.88;;;;;;;;;;5049378;28;20025;-68
2022/08/04 02:15:50;;;;;;;10.65;1.80;;;;;;;;;;5046805;28;20021;-67
2022/08/04 02:18:23;;;;;;;6.75;1.48;;;;;;;;;;5050523;28;20017;-67
2022/08/04 02:20:49;;;;;;;7.00;1.90;;;;;;;;;;5050267;28;20013;-67
2022/08/04 02:23:16;;;;;;;10.80;2.15;;;;;;;;;;5050913;28;20484;-68
2022/08/04 02:25:46;;;;;;;5.63;1.75;;;;;;;;;;5049008;28;20502;-67
2022/08/04 02:28:12;;;;;;;9.52;1.85;;;;;;;;;;5050235;28;20036;-67
2022/08/04 02:31:01;;;;;;;10.07;2.28;;;;;;;;;;5049054;28;20032;-67
2022/08/04 02:33:31;;;;;;;6.60;1.80;;;;;;;;;;5027857;28;20122;-67
2022/08/04 02:35:58;;;;;;;12.07;2.13;;;;;;;;;;5029282;28;20025;-67
2022/08/04 02:38:29;;;;;;;9.00;2.60;;;;;;;;;;5030451;28;20044;-67
2022/08/04 02:40:56;;;;;;;15.10;2.33;;;;;;;;;;5028934;28;20025;-68
2022/08/04 02:43:22;;;;;;;6.85;1.85;;;;;;;;;;5030226;28;20405;-67
2022/08/04 02:45:48;;;;;;;10.05;1.67;;;;;;;;;;5028825;28;20021;-67
2022/08/04 02:48:14;;;;;;;13.52;2.92;;;;;;;;;;5040908;28;20028;-68
2022/08/04 02:50:40;;;;;;;8.52;1.90;;;;;;;;;;5050155;28;20048;-67
2022/08/04 02:53:06;;;;;;;10.38;1.88;;;;;;;;;;5049916;28;20028;-67
2022/08/04 02:55:32;;;;;;;14.02;2.22;;;;;;;;;;5048927;28;20043;-67
2022/08/04 02:57:59;;;;;;;17.65;1.83;;;;;;;;;;5048948;28;20029;-67
2022/08/04 03:00:25;;;;;;;9.65;2.72;;;;;;;;;;5050088;28;20040;-67
2022/08/04 03:02:55;;;;;;;13.45;3.42;;;;;;;;;;5048490;28;20036;-67
2022/08/04 03:05:22;;;;;;;11.23;1.73;;;;;;;;;;5049883;28;20484;-67
2022/08/04 03:07:48;;;;;;;11.40;2.20;;;;;;;;;;5048640;28;20032;-67
2022/08/04 03:10:15;;;;;;;10.13;1.50;;;;;;;;;;5052007;28;20028;-68
2022/08/04 03:12:59;;;;;;;10.30;1.95;;;;;;;;;;5054413;28;20033;-67
2022/08/04 03:15:29;;;;;;;9.20;2.05;;;;;;;;;;5049802;28;20061;-67
2022/08/04 03:18:13;;;;;;;12.57;1.77;;;;;;;;;;5049670;28;20033;-67
2022/08/04 03:20:44;;;;;;;13.40;2.38;;;;;;;;;;5033541;28;20026;-67
2022/08/04 03:23:10;;;;;;;11.43;2.15;;;;;;;;;;5051536;28;20654;-68
2022/08/04 03:25:41;;;;;;;5.63;1.75;;;;;;;;;;5057915;28;20025;-68
2022/08/04 03:28:10;;;;;;;12.48;2.10;;;;;;;;;;5047199;28;20476;-67
2022/08/04 03:30:36;;;;;;;8.60;2.20;;;;;;;;;;5049551;28;20033;-67
2022/08/04 03:33:08;;;;;;;8.38;1.98;;;;;;;;;;5049428;28;20095;-67
2022/08/04 03:35:34;;;;;;;10.13;1.85;;;;;;;;;;5050160;28;20078;-67
2022/08/04 03:38:04;;;;;;;10.98;1.95;;;;;;;;;;5049154;28;20341;-67
2022/08/04 03:40:45;;;;;;;9.73;2.72;;;;;;;;;;5051858;28;20063;-67
2022/08/04 03:43:14;;;;;;;23.70;3.10;;;;;;;;;;5053986;28;20031;-67
2022/08/04 03:45:40;;;;;;;16.15;2.42;;;;;;;;;;5056235;28;20093;-67
2022/08/04 03:48:22;;;;;;;11.05;2.35;;;;;;;;;;5057627;28;20021;-67
2022/08/04 03:53:52;;;;;;;11.13;2.05;;;;;;;;;;5057405;28;20044;-67
2022/08/04 03:56:37;;;;;;;6.25;1.88;;;;;;;;;;5049971;28;21135;-67
2022/08/04 03:59:13;;;;;;;10.65;2.13;;;;;;;;;;5066527;28;20365;-67
2022/08/04 04:01:57;;;;;;;5.38;1.60;;;;;;;;;;5070710;28;20478;-67
2022/08/04 04:04:37;;;;;;;5.78;1.80;;;;;;;;;;5057746;28;20108;-67
2022/08/04 04:07:06;;;;;;;5.72;1.77;;;;;;;;;;5054542;28;20034;-67
2022/08/04 04:09:32;;;;;;;13.65;2.28;;;;;;;;;;5067100;28;20021;-68
2022/08/04 04:12:17;;;;;;;5.20;1.70;;;;;;;;;;5067004;28;20033;-67
2022/08/04 04:14:58;;;;;;;6.70;1.73;;;;;;;;;;5063389;28;20426;-67
2022/08/04 04:17:33;;;;;;;7.20;1.88;;;;;;;;;;5052685;28;20379;-68
2022/08/04 04:20:18;;;;;;;6.78;1.75;;;;;;;;;;5065411;28;20083;-67
2022/08/04 04:22:51;;;;;;;4.97;1.90;;;;;;;;;;5054727;28;20021;-67
2022/08/04 04:25:23;;;;;;;8.35;1.70;;;;;;;;;;5059317;28;20075;-67
2022/08/04 04:27:51;;;;;;;10.57;1.90;;;;;;;;;;5048930;28;20024;-67
2022/08/04 04:30:36;;;;;;;15.90;2.35;;;;;;;;;;5050705;28;20029;-67
2022/08/04 04:33:07;;;;;;;13.32;2.17;;;;;;;;;;5044738;28;20051;-67
2022/08/04 04:35:36;;;;;;;8.55;2.00;;;;;;;;;;5055369;28;20029;-67
2022/08/04 04:38:05;;;;;;;6.28;1.92;;;;;;;;;;5060138;28;20808;-67
2022/08/04 04:40:34;;;;;;;11.00;3.25;;;;;;;;;;5051959;28;20017;-67
2022/08/04 04:43:19;;;;;;;4.40;1.58;;;;;;;;;;5051080;28;20094;-67
2022/08/04 04:45:58;;;;;;;7.30;2.35;;;;;;;;;;5045795;28;20035;-67
2022/08/04 04:48:33;;;;;;;15.52;2.00;;;;;;;;;;5063288;28;20060;-67
2022/08/04 04:50:59;;;;;;;9.00;1.60;;;;;;;;;;5050921;28;20155;-67
2022/08/04 04:53:58;;;;;;;6.75;1.60;;;;;;;;;;5057112;28;20036;-67
2022/08/04 04:56:27;;;;;;;10.23;2.38;;;;;;;;;;5032018;28;20041;-67
2022/08/04 04:58:54;;;;;;;10.32;1.80;;;;;;;;;;5051068;28;20040;-67
2022/08/04 05:01:20;;;;;;;8.98;1.75;;;;;;;;;;5051529;28;20025;-67
2022/08/04 05:03:58;;;;;;;9.63;2.35;;;;;;;;;;5066683;28;20036;-67
2022/08/04 05:06:24;;;;;;;9.13;1.98;;;;;;;;;;5054642;28;20044;-67
2022/08/04 05:08:53;;;;;;;3.80;1.40;;;;;;;;;;5062920;28;20551;-67
2022/08/04 05:11:19;;;;;;;6.60;1.75;;;;;;;;;;5067983;28;20024;-68
2022/08/04 05:13:49;;;;;;;11.50;2.00;;;;;;;;;;5049249;28;20090;-67
2022/08/04 05:16:32;;;;;;;7.82;1.90;;;;;;;;;;5049613;28;20029;-67
2022/08/04 05:19:04;;;;;;;9.68;1.75;;;;;;;;;;5069109;28;20025;-67
2022/08/04 05:21:30;;;;;;;11.85;1.85;;;;;;;;;;5068378;28;20028;-67
2022/08/04 05:23:56;;;;;;;17.02;2.20;;;;;;;;;;5048402;28;20048;-67
2022/08/04 05:26:23;;;;;;;11.35;1.73;;;;;;;;;;5050429;28;20021;-67
2022/08/04 05:28:53;;;;;;;7.05;2.10;;;;;;;;;;5050757;28;20025;-67
2022/08/04 05:31:21;;;;;;;6.30;1.92;;;;;;;;;;5052286;28;20045;-67
2022/08/04 05:33:54;;;;;;;6.72;1.77;;;;;;;;;;5060786;28;20119;-67
2022/08/04 05:36:20;;;;;;;8.65;1.80;;;;;;;;;;5058694;28;20099;-67
2022/08/04 05:38:49;;;;;;;19.88;3.53;;;;;;;;;;5047016;28;20419;-68
2022/08/04 05:41:15;;;;;;;12.88;1.48;;;;;;;;;;5059697;28;20701;-67
2022/08/04 05:43:42;;;;;;;8.73;1.55;;;;;;;;;;5061783;28;20479;-67
2022/08/04 05:46:09;;;;;;;9.73;2.00;;;;;;;;;;5066982;28;20082;-67
2022/08/04 05:48:35;;;;;;;11.65;2.60;;;;;;;;;;5067357;28;20036;-67
2022/08/04 05:51:01;;;;;;;9.68;1.92;;;;;;;;;;5060587;28;20029;-67
2022/08/04 05:53:27;;;;;;;9.68;1.63;;;;;;;;;;5066459;28;20058;-67
2022/08/04 05:55:53;;;;;;;5.30;1.67;;;;;;;;;;5063601;28;20494;-67
2022/08/04 05:58:20;;;;;;;10.40;2.47;;;;;;;;;;5056079;28;20372;-67
2022/08/04 06:00:46;;;;;;;9.40;2.22;;;;;;;;;;5059565;28;20031;-67
2022/08/04 06:03:12;;;;;;;6.53;1.90;;;;;;;;;;5055111;28;20029;-67
2022/08/04 06:05:38;;;;;;;5.38;1.52;;;;;;;;;;5070729;28;20032;-67
2022/08/04 06:08:05;;;;;;;12.95;2.13;;;;;;;;;;5052027;28;20036;-67
2022/08/04 06:10:31;;;;;;;7.47;2.20;;;;;;;;;;5047748;28;20033;-67
2022/08/04 06:12:58;;;;;;;5.03;1.50;;;;;;;;;;5061137;28;20028;-67
2022/08/04 06:15:24;;;;;;;8.15;1.70;;;;;;;;;;5048086;28;20499;-67
2022/08/04 06:17:54;;;;;;;6.03;1.88;;;;;;;;;;5051292;28;20075;-67
2022/08/04 06:20:20;;;;;;;10.27;2.15;;;;;;;;;;5049010;28;20029;-68
2022/08/04 06:22:46;;;;;;;7.10;2.17;;;;;;;;;;5051410;28;20392;-68
2022/08/04 06:25:14;;;;;;;10.43;1.73;;;;;;;;;;5045925;28;20095;-68
2022/08/04 06:27:40;;;;;;;6.82;1.88;;;;;;;;;;5061923;28;20115;-67
2022/08/04 06:30:12;;;;;;;5.82;1.98;;;;;;;;;;5052647;28;20563;-68
2022/08/04 06:32:46;;;;;;;15.93;2.20;;;;;;;;;;5055616;28;20052;-67
2022/08/04 06:35:12;;;;;;;9.30;2.70;;;;;;;;;;5049188;28;20021;-68
2022/08/04 06:37:38;;;;;;;6.90;1.65;;;;;;;;;;5060324;28;20391;-67
2022/08/04 06:40:05;;;;;;;8.82;1.60;;;;;;;;;;5048063;28;20025;-68
2022/08/04 06:42:31;;;;;;;7.80;1.85;;;;;;;;;;5055836;28;20391;-68
2022/08/04 06:44:58;;;;;;;10.07;1.92;;;;;;;;;;5052074;28;20503;-68
2022/08/04 06:47:24;;;;;;;8.55;2.20;;;;;;;;;;5057078;28;20090;-68
2022/08/04 06:49:51;;;;;;;7.85;1.40;;;;;;;;;;5068488;28;20032;-68
2022/08/04 06:52:18;;;;;;;4.70;1.38;;;;;;;;;;5049598;28;20530;-68
2022/08/04 06:54:45;;;;;;;10.23;2.40;;;;;;;;;;5067397;28;20028;-68
2022/08/04 06:57:11;;;;;;;10.48;2.22;;;;;;;;;;5065621;28;20021;-68
2022/08/04 06:59:37;;;;;;;13.27;1.92;;;;;;;;;;5064960;28;20075;-68
2022/08/04 07:02:03;;;;;;;5.55;1.42;;;;;;;;;;5061090;28;20032;-68
2022/08/04 07:04:29;;;;;;;14.85;2.17;;;;;;;;;;5051223;28;20029;-67
2022/08/04 07:06:55;;;;;;;7.35;1.48;;;;;;;;;;5068368;28;20033;-68
2022/08/04 07:09:21;;;;;;;6.72;1.90;;;;;;;;;;5064684;28;20033;-67
2022/08/04 07:11:48;;;;;;;7.97;1.40;;;;;;;;;;5054775;28;20502;-67
2022/08/04 07:14:14;;;;;;;11.90;1.80;;;;;;;;;;5034003;28;20018;-68
2022/08/04 07:16:40;;;;;;;5.43;1.30;;;;;;;;;;5071549;28;20426;-68
2022/08/04 07:19:06;;;;;;;7.47;1.20;;;;;;;;;;5054433;28;20025;-67
2022/08/04 07:21:32;;;;;;;3.75;1.20;;;;;;;;;;5067735;28;20020;-68
2022/08/04 07:23:58;;;;;;;7.78;1.40;;;;;;;;;;5070685;28;20047;-68
2022/08/04 07:26:28;;;;;;;11.45;1.20;;;;;;;;;;5068075;28;20150;-68
2022/08/04 07:28:54;;;;;;;5.18;1.35;;;;;;;;;;5061996;28;20055;-67
2022/08/04 07:31:22;;;;;;;7.35;1.30;;;;;;;;;;5070377;28;20084;-68
2022/08/04 07:33:48;;;;;;;4.82;1.00;;;;;;;;;;5051771;28;20071;-68
2022/08/04 07:36:14;;;;;;;4.40;1.08;;;;;;;;;;5053324;28;20039;-68
2022/08/04 07:38:40;;;;;;;9.40;1.25;;;;;;;;;;5069415;28;20036;-68
2022/08/04 07:41:06;;;;;;;9.63;1.27;;;;;;;;;;5056965;28;20033;-67
2022/08/04 07:43:32;;;;;;;5.78;1.40;;;;;;;;;;5061688;28;20025;-68
2022/08/04 07:45:58;;;;;;;9.98;1.30;;;;;;;;;;5067692;28;20099;-68
2022/08/04 07:48:24;;;;;;;9.45;1.30;;;;;;;;;;5067558;28;20032;-68
2022/08/04 07:50:51;;;;;;;13.52;1.52;;;;;;;;;;5050926;28;20048;-68
2022/08/04 07:53:17;;;;;;;9.65;1.95;;;;;;;;;;5054038;28;20082;-68
2022/08/04 07:55:44;;;;;;;5.50;1.77;;;;;;;;;;5051994;28;20025;-68
2022/08/04 07:58:10;;;;;;;12.75;2.10;;;;;;;;;;5048040;28;20098;-68
2022/08/04 08:00:36;;;;;;;18.67;2.00;;;;;;;;;;5051143;28;20025;-68
2022/08/04 08:03:02;;;;;;;9.18;1.52;;;;;;;;;;5051253;28;20480;-68
2022/08/04 08:05:29;;;;;;;11.82;1.35;;;;;;;;;;5056684;28;20021;-68
2022/08/04 08:07:56;;;;;;;8.63;1.52;;;;;;;;;;5060408;28;20102;-68
2022/08/04 08:10:23;;;;;;;14.48;2.42;;;;;;;;;;5067260;28;20027;-68
2022/08/04 08:12:49;;;;;;;5.22;1.15;;;;;;;;;;5052975;28;20025;-68
2022/08/04 08:15:15;;;;;;;8.02;1.00;;;;;;;;;;5052564;28;20029;-68
2022/08/04 08:17:41;;;;;;;7.53;1.23;;;;;;;;;;5051883;28;20021;-68
2022/08/04 08:20:08;;;;;;;10.35;1.90;;;;;;;;;;5051540;28;20032;-67
2022/08/04 08:22:35;;;;;;;9.50;1.17;;;;;;;;;;5051046;28;20041;-68
2022/08/04 08:25:01;;;;;;;4.97;1.70;;;;;;;;;;5049775;28;20112;-68
2022/08/04 08:27:27;;;;;;;11.88;1.33;;;;;;;;;;5050677;28;20024;-68
2022/08/04 08:29:53;;;;;;;7.68;1.35;;;;;;;;;;5051857;28;20033;-68
2022/08/04 08:32:19;;;;;;;12.57;2.92;;;;;;;;;;5063799;28;20045;-68
2022/08/04 08:34:45;;;;;;;6.53;1.35;;;;;;;;;;5051448;28;20024;-68
2022/08/04 08:37:24;;;;;;;7.13;1.50;;;;;;;;;;5050595;28;20025;-68
2022/08/04 08:39:57;;;;;;;8.82;1.70;;;;;;;;;;5051322;28;20086;-68
2022/08/04 08:42:29;;;;;;;8.10;1.33;;;;;;;;;;5032431;28;20083;-68
2022/08/04 08:45:07;;;;;;;13.73;3.25;;;;;;;;;;5038306;28;20021;-68
2022/08/04 08:47:39;;;;;;;8.68;1.45;;;;;;;;;;5069001;28;20033;-67
2022/08/04 08:50:18;;;;;;;14.23;1.70;;;;;;;;;;5067714;28;20487;-68
2022/08/04 08:52:50;;;;;;;10.88;1.63;;;;;;;;;;5067390;28;20024;-68
2022/08/04 08:55:16;;;;;;;9.20;1.35;;;;;;;;;;5054996;28;20430;-67
2022/08/04 08:57:46;;;;;;;7.57;1.15;;;;;;;;;;5068847;28;20021;-68
2022/08/04 09:00:39;;;;;;;9.55;1.88;;;;;;;;;;5066217;28;20024;-68
2022/08/04 09:03:10;;;;;;;11.73;1.38;;;;;;;;;;5030052;28;20630;-68
2022/08/04 09:05:41;;;;;;;8.27;1.40;;;;;;;;;;5053300;28;20047;-68
2022/08/04 09:08:07;;;;;;;12.05;1.83;;;;;;;;;;5052746;28;20086;-68
2022/08/04 09:10:43;;;;;;;9.15;1.30;;;;;;;;;;5051918;28;20063;-68
2022/08/04 09:13:25;;;;;;;11.10;1.98;;;;;;;;;;5047350;28;20079;-68
2022/08/04 09:15:54;;;;;;;11.40;2.03;;;;;;;;;;5042654;28;20025;-68
2022/08/04 09:18:25;;;;;;;12.15;1.35;;;;;;;;;;5051360;28;20380;-68
2022/08/04 09:20:54;;;;;;;11.48;2.50;;;;;;;;;;5050384;28;20116;-68
2022/08/04 09:23:24;;;;;;;9.98;2.45;;;;;;;;;;5051116;28;20100;-68
2022/08/04 09:26:08;;;;;;;10.40;2.05;;;;;;;;;;5050323;28;20032;-68
2022/08/04 09:29:04;;;;;;;9.65;2.50;;;;;;;;;;5051427;28;20031;-68
2022/08/04 09:31:30;;;;;;;13.00;2.03;;;;;;;;;;4997681;28;20038;-68
2022/08/04 09:34:05;;;;;;;9.85;1.65;;;;;;;;;;5050166;28;20104;-68
2022/08/04 09:36:45;;;;;;;11.65;1.88;;;;;;;;;;5050676;28;20074;-68
2022/08/04 09:39:17;;;;;;;11.18;1.67;;;;;;;;;;5050997;28;20052;-67
2022/08/04 09:42:02;;;;;;;9.97;1.40;;;;;;;;;;5071097;28;20518;-68
2022/08/04 09:44:47;;;;;;;7.43;1.30;;;;;;;;;;5062523;28;20115;-68
2022/08/04 09:47:31;;;;;;;12.48;1.40;;;;;;;;;;5054511;28;20082;-68
2022/08/04 09:50:00;;;;;;;8.00;2.40;;;;;;;;;;5048785;28;20115;-68
2022/08/04 09:52:34;;;;;;;15.93;2.80;;;;;;;;;;5050709;28;20361;-68
2022/08/04 09:55:06;;;;;;;9.90;1.58;;;;;;;;;;5049887;28;20024;-67
2022/08/04 09:57:38;;;;;;;9.98;1.48;;;;;;;;;;5047469;28;20552;-68
2022/08/04 10:00:08;;;;;;;8.68;1.33;;;;;;;;;;5050226;28;20100;-68
2022/08/04 10:02:38;;;;;;;10.15;1.92;;;;;;;;;;5050701;28;20029;-68
2022/08/04 10:05:05;;;;;;;12.27;1.58;;;;;;;;;;5050039;28;20062;-68
2022/08/04 10:08:09;;;;;;;20.77;2.55;;;;;;;;;;5048261;28;20032;-68
2022/08/04 10:10:54;;;;;;;14.95;1.88;;;;;;;;;;5002362;28;20038;-68
2022/08/04 10:13:23;;;;;;;12.00;2.15;;;;;;;;;;5005508;28;20546;-68
2022/08/04 10:16:09;;;;;;;6.57;2.13;;;;;;;;;;5008636;28;20116;-67
2022/08/04 10:18:39;;;;;;;10.15;1.70;;;;;;;;;;4981060;28;20370;-68
2022/08/04 10:21:19;;;;;;;8.02;1.33;;;;;;;;;;5006826;28;20026;-68
2022/08/04 10:23:45;;;;;;;9.20;1.50;;;;;;;;;;5013185;28;20040;-68
2022/08/04 10:26:40;;;;;;;12.48;3.00;;;;;;;;;;5020874;28;20642;-68
2022/08/04 10:29:09;;;;;;;4.53;1.30;;;;;;;;;;4987848;28;20042;-67
2022/08/04 10:31:44;;;;;;;10.45;2.13;;;;;;;;;;4991296;28;20085;-68
2022/08/04 10:34:12;;;;;;;9.40;1.20;;;;;;;;;;4991809;28;20185;-67
2022/08/04 10:36:57;;;;;;;8.23;1.58;;;;;;;;;;4991100;28;20066;-67
2022/08/04 10:39:32;;;;;;;13.52;1.80;;;;;;;;;;4991343;28;20109;-67
2022/08/04 10:42:07;;;;;;;5.10;1.27;;;;;;;;;;5030489;28;20041;-67
2022/08/04 10:44:33;;;;;;;8.23;1.80;;;;;;;;;;5044918;28;20028;-67
2022/08/04 10:47:18;;;;;;;9.55;1.58;;;;;;;;;;5069874;28;20040;-67
2022/08/04 10:49:54;;;;;;;7.88;1.63;;;;;;;;;;5066076;28;20069;-67
2022/08/04 10:52:38;;;;;;;10.23;1.40;;;;;;;;;;5034310;28;20021;-68
2022/08/04 10:55:21;;;;;;;10.48;1.67;;;;;;;;;;5054329;28;20028;-68
2022/08/04 10:57:51;;;;;;;4.88;1.52;;;;;;;;;;5073447;28;20047;-69
2022/08/04 11:00:19;;;;;;;10.13;1.65;;;;;;;;;;5070269;28;20103;-68
2022/08/04 11:03:09;;;;;;;8.85;1.30;;;;;;;;;;5058918;28;20044;-68
2022/08/04 11:05:40;;;;;;;14.10;2.08;;;;;;;;;;5059176;28;20033;-67
2022/08/04 11:08:10;;;;;;;10.35;1.85;;;;;;;;;;5040475;28;20091;-66
2022/08/04 11:10:40;;;;;;;9.02;1.50;;;;;;;;;;5059332;28;20029;-66
2022/08/04 11:13:06;;;;;;;5.28;1.98;;;;;;;;;;5057249;28;20025;-67
2022/08/04 11:15:44;;;;;;;9.02;1.65;;;;;;;;;;5052777;28;20032;-67
2022/08/04 11:18:14;;;;;;;11.15;1.40;;;;;;;;;;5051859;28;20112;-67
2022/08/04 11:20:56;;;;;;;14.73;1.20;;;;;;;;;;5062771;28;20025;-66
2022/08/04 11:23:23;;;;;;;7.28;2.05;;;;;;;;;;5055774;28;20487;-67
2022/08/04 11:25:55;;;;;;;5.55;1.20;;;;;;;;;;5059278;28;20043;-66
2022/08/04 11:28:23;;;;;;;9.60;1.23;;;;;;;;;;5073324;28;20033;-66
2022/08/04 11:31:05;;;;;;;8.68;1.65;;;;;;;;;;5069715;28;20051;-67
2022/08/04 11:33:31;;;;;;;14.40;1.73;;;;;;;;;;5069005;28;20372;-67
2022/08/04 11:35:57;;;;;;;13.82;2.17;;;;;;;;;;5052829;28;20091;-66
2022/08/04 11:38:28;;;;;;;10.70;1.48;;;;;;;;;;5052419;28;20055;-66
2022/08/04 11:40:56;;;;;;;7.97;1.40;;;;;;;;;;5059739;28;20028;-66
2022/08/04 11:43:25;;;;;;;8.45;1.48;;;;;;;;;;5072068;28;20089;-67
2022/08/04 11:45:53;;;;;;;11.48;1.83;;;;;;;;;;5052546;28;20036;-67
2022/08/04 11:48:20;;;;;;;7.78;1.63;;;;;;;;;;5053556;28;20124;-67
2022/08/04 11:50:50;;;;;;;8.07;1.75;;;;;;;;;;5050960;28;20029;-67
2022/08/04 11:53:18;;;;;;;8.65;1.52;;;;;;;;;;5051334;28;20052;-68
2022/08/04 11:55:44;;;;;;;4.95;1.25;;;;;;;;;;5054510;28;20104;-67
2022/08/04 11:58:10;;;;;;;7.43;1.40;;;;;;;;;;5064005;28;20025;-67
2022/08/04 12:00:37;;;;;;;9.60;1.60;;;;;;;;;;5050345;28;20062;-68
2022/08/04 12:03:22;;;;;;;8.25;1.25;;;;;;;;;;5052050;28;20060;-68
2022/08/04 12:05:51;;;;;;;6.65;1.45;;;;;;;;;;5056489;28;20029;-67
2022/08/04 12:08:36;;;;;;;3.75;1.00;;;;;;;;;;5054931;28;20483;-67
2022/08/04 12:11:02;;;;;;;15.02;2.15;;;;;;;;;;5068416;28;20020;-67
2022/08/04 12:13:43;;;;;;;8.25;1.30;;;;;;;;;;5064595;28;20375;-67
2022/08/04 12:16:15;;;;;;;9.50;1.50;;;;;;;;;;5071559;28;20094;-67
2022/08/04 12:18:44;;;;;;;7.00;1.73;;;;;;;;;;5070955;28;20476;-71
2022/08/04 12:21:12;;;;;;;10.13;1.15;;;;;;;;;;5052613;28;20021;-69
2022/08/04 12:23:39;;;;;;;5.18;1.50;;;;;;;;;;5052134;28;20024;-69
2022/08/04 12:26:06;;;;;;;10.27;1.65;;;;;;;;;;5050148;28;20104;-67
2022/08/04 12:28:33;;;;;;;7.43;1.27;;;;;;;;;;5050584;28;20128;-67
2022/08/04 12:31:03;;;;;;;9.88;1.10;;;;;;;;;;5031154;28;20365;-67
2022/08/04 12:33:32;;;;;;;4.95;2.08;;;;;;;;;;5050167;28;20030;-68
2022/08/04 12:36:00;;;;;;;12.00;2.45;;;;;;;;;;5052806;28;20028;-68
2022/08/04 12:38:27;;;;;;;10.10;1.77;;;;;;;;;;5051145;28;20029;-68
2022/08/04 12:40:54;;;;;;;4.38;1.02;;;;;;;;;;5058318;28;20368;-67
2022/08/04 12:43:29;;;;;;;7.22;1.42;;;;;;;;;;5051785;28;20033;-67
2022/08/04 12:45:57;;;;;;;11.43;1.55;;;;;;;;;;5057065;28;20067;-67
2022/08/04 12:48:23;;;;;;;7.38;1.23;;;;;;;;;;5051071;28;20025;-67
2022/08/04 12:50:50;;;;;;;6.35;1.20;;;;;;;;;;5052251;28;20130;-67
2022/08/04 12:53:16;;;;;;;8.85;1.20;;;;;;;;;;5051579;28;20035;-67
2022/08/04 12:55:45;;;;;;;7.45;1.52;;;;;;;;;;5049050;28;20104;-68
2022/08/04 12:58:13;;;;;;;5.97;1.30;;;;;;;;;;5053321;28;20029;-68
2022/08/04 13:00:39;;;;;;;7.47;0.90;;;;;;;;;;5051281;28;20051;-68
2022/08/04 13:03:06;;;;;;;6.07;1.58;;;;;;;;;;5053341;28;20063;-67
2022/08/04 13:05:32;;;;;;;4.97;1.38;;;;;;;;;;5051377;28;20029;-67
2022/08/04 13:07:58;;;;;;;10.52;1.52;;;;;;;;;;5049169;28;20025;-67
2022/08/04 13:10:24;;;;;;;7.88;1.23;;;;;;;;;;5032802;28;20468;-67
2022/08/04 13:13:00;;;;;;;4.85;1.10;;;;;;;;;;5048308;28;20233;-68
2022/08/04 13:15:27;;;;;;;5.57;1.38;;;;;;;;;;5032912;28;20025;-68
2022/08/04 13:17:56;;;;;;;7.40;1.95;;;;;;;;;;5049781;28;20072;-67
2022/08/04 13:20:29;;;;;;;4.60;1.10;;;;;;;;;;5033937;28;20032;-68
2022/08/04 13:23:15;;;;;;;6.00;1.10;;;;;;;;;;5031549;28;20025;-67
2022/08/04 13:25:45;;;;;;;4.63;1.02;;;;;;;;;;5030442;28;20392;-68
2022/08/04 13:28:21;;;;;;;6.70;1.20;;;;;;;;;;5031474;28;20116;-67
2022/08/04 13:30:47;;;;;;;6.68;1.77;;;;;;;;;;5031458;28;20101;-67
2022/08/04 13:33:13;;;;;;;7.63;1.50;;;;;;;;;;5046551;28;20041;-67
2022/08/04 13:35:46;;;;;;;6.38;2.13;;;;;;;;;;5051198;28;20025;-68
2022/08/04 13:38:13;;;;;;;3.97;1.25;;;;;;;;;;5051183;28;20028;-67
2022/08/04 13:40:39;;;;;;;5.30;1.33;;;;;;;;;;5050179;28;20369;-68
2022/08/04 13:43:05;;;;;;;7.20;1.23;;;;;;;;;;5049810;28;20502;-68
2022/08/04 13:45:31;;;;;;;5.20;1.20;;;;;;;;;;5049312;28;20028;-68
2022/08/04 13:47:57;;;;;;;7.10;1.50;;;;;;;;;;5049484;28;20033;-68
2022/08/04 13:50:34;;;;;;;5.72;1.20;;;;;;;;;;5050864;28;20025;-68
2022/08/04 13:53:00;;;;;;;4.25;1.10;;;;;;;;;;5050208;28;20016;-68
2022/08/04 13:55:26;;;;;;;8.27;1.88;;;;;;;;;;5049584;28;20032;-68
2022/08/04 13:57:54;;;;;;;5.78;1.30;;;;;;;;;;5051005;28;20029;-68
2022/08/04 14:00:20;;;;;;;8.75;1.30;;;;;;;;;;5045612;28;20420;-68
2022/08/04 14:02:48;;;;;;;6.03;1.27;;;;;;;;;;5049176;28;20403;-68
2022/08/04 14:05:17;;;;;;;6.32;1.20;;;;;;;;;;5049351;28;20035;-68
2022/08/04 14:07:47;;;;;;;6.68;1.55;;;;;;;;;;5050776;28;20411;-67
2022/08/04 14:10:13;;;;;;;8.88;1.60;;;;;;;;;;5050416;28;20048;-68
2022/08/04 14:12:44;;;;;;;7.18;1.27;;;;;;;;;;5049370;28;20555;-67
2022/08/04 14:15:14;;;;;;;8.55;1.42;;;;;;;;;;5035565;28;20031;-67
2022/08/04 14:17:40;;;;;;;9.20;1.50;;;;;;;;;;5043013;28;20037;-67
2022/08/04 14:20:06;;;;;;;7.80;1.23;;;;;;;;;;5050498;28;20035;-67
2022/08/04 14:22:34;;;;;;;10.45;1.65;;;;;;;;;;5050286;28;20029;-67
2022/08/04 14:25:00;;;;;;;10.93;1.45;;;;;;;;;;5050156;28;20031;-67
2022/08/04 14:27:29;;;;;;;8.32;1.98;;;;;;;;;;5049055;28;20492;-67
2022/08/04 14:29:55;;;;;;;6.60;1.55;;;;;;;;;;5050418;28;20104;-67
2022/08/04 14:32:21;;;;;;;7.88;1.40;;;;;;;;;;5048632;28;20096;-67
2022/08/04 14:34:48;;;;;;;13.13;1.63;;;;;;;;;;5050667;28;20076;-67
2022/08/04 14:37:15;;;;;;;9.50;1.33;;;;;;;;;;5050415;28;20021;-67
2022/08/04 14:39:46;;;;;;;9.00;1.55;;;;;;;;;;5050474;28;20017;-67
2022/08/04 14:42:13;;;;;;;3.95;0.82;;;;;;;;;;5050083;28;20028;-67
2022/08/04 14:44:52;;;;;;;6.20;1.30;;;;;;;;;;5050269;28;20496;-67
2022/08/04 14:47:18;;;;;;;13.82;1.60;;;;;;;;;;5049808;28;20029;-67
2022/08/04 14:49:54;;;;;;;6.25;1.50;;;;;;;;;;5049217;28;20029;-67
2022/08/04 14:52:26;;;;;;;6.32;1.27;;;;;;;;;;5049722;28;20064;-66
2022/08/04 14:54:53;;;;;;;7.57;1.02;;;;;;;;;;5050434;28;20054;-67
2022/08/04 14:57:19;;;;;;;12.07;1.33;;;;;;;;;;5049860;28;20511;-67
2022/08/04 14:59:47;;;;;;;13.30;1.73;;;;;;;;;;5048058;28;20078;-67
2022/08/04 15:02:14;;;;;;;11.95;1.90;;;;;;;;;;5050143;28;20025;-67